Terminal Aerodrome Forecast
Issued by NWS Wilmington, OH

Current Version | Previous Version | Graphics & Text | Print | Product List | Glossary On
Versions: 1 2 3 4 5 6 7 8 9 10 11 12 13 14 15 16 17 18
000
FTUS41 KILN 201136
TAFILN
TAF
KILN 201136Z 2012/2112 22004KT P6SM SCT150 BKN250
     FM201600 24009KT P6SM SCT050 BKN200
     FM210400 24005KT P6SM SCT080=

USA.gov is the U.S. government's official web portal to all federal, state and local government web resources and services.